Bathurst Airport


Codes: YBTH/BHS
Name: Bathurst Airport
City: Bathurst
Country: Australia
Elevation: 2435 ft.
Wikipedia:

Photos at Bathurst Airport


   Photos courtesy of SpottingLog. You can add your own sightings and photos by signing up for a free trial today.



No photos found.

Weather at Bathurst Airport


Time (UTC)DescriptionTempratureWindCloud coverageVisibilityPressureHumidity
26-Jun-2024 00:00Scattered Clouds7°C9 mph, NW50%10000m1021hPa77%
26-Jun-2024 03:00Scattered Clouds11°C13 mph, NW30%10000m1019hPa68%
26-Jun-2024 06:00Broken Clouds12°C9 mph, NW58%10000m1018hPa65%
26-Jun-2024 09:00Overcast Clouds5°C2 mph, W100%10000m1022hPa85%
26-Jun-2024 12:00Overcast Clouds3°C0 mph, NE100%10000m1024hPa87%
26-Jun-2024 15:00Overcast Clouds2°C2 mph, NE88%10000m1024hPa88%
26-Jun-2024 18:00Broken Clouds1°C2 mph, SE53%10000m1025hPa88%
26-Jun-2024 21:00Clear Sky0°C2 mph, SE5%10000m1026hPa88%
27-Jun-2024 00:00Clear Sky8°C2 mph, W6%10000m1025hPa60%
27-Jun-2024 03:00Scattered Clouds12°C11 mph, SW27%10000m1022hPa45%
27-Jun-2024 06:00Scattered Clouds11°C9 mph, SW31%10000m1022hPa52%
27-Jun-2024 09:00Clear Sky3°C2 mph, S7%10000m1026hPa85%
27-Jun-2024 12:00Clear Sky2°C2 mph, E4%10000m1027hPa91%
27-Jun-2024 15:00Clear Sky1°C2 mph, E2%10000m1028hPa91%
27-Jun-2024 18:00Clear Sky1°C2 mph, S1%10000m1028hPa92%
27-Jun-2024 21:00Clear Sky0°C2 mph, SE0%10000m1029hPa92%
28-Jun-2024 00:00Clear Sky9°C0 mph, SE0%10000m1028hPa64%
28-Jun-2024 03:00Clear Sky13°C2 mph, W0%10000m1024hPa43%
28-Jun-2024 06:00Clear Sky11°C2 mph, NW0%10000m1023hPa52%
28-Jun-2024 09:00Clear Sky5°C4 mph, E0%10000m1026hPa68%
28-Jun-2024 12:00Clear Sky2°C2 mph, E0%10000m1027hPa79%
28-Jun-2024 15:00Clear Sky1°C2 mph, E0%10000m1026hPa82%
28-Jun-2024 18:00Clear Sky1°C2 mph, SE0%10000m1026hPa82%
28-Jun-2024 21:00Clear Sky0°C2 mph, E0%10000m1026hPa81%
29-Jun-2024 00:00Clear Sky9°C2 mph, NW0%10000m1024hPa50%
29-Jun-2024 03:00Clear Sky14°C9 mph, NW5%10000m1020hPa40%
29-Jun-2024 06:00Clear Sky13°C9 mph, NW4%10000m1019hPa59%
29-Jun-2024 09:00Clear Sky7°C2 mph, NE4%10000m1020hPa85%
29-Jun-2024 12:00Scattered Clouds9°C2 mph, NE49%10000m1019hPa88%
29-Jun-2024 15:00Light Rain10°C4 mph, N98%10000m1017hPa96%
29-Jun-2024 18:00Light Rain10°C4 mph, N89%10000m1016hPa98%
29-Jun-2024 21:00Light Rain12°C11 mph, NW99%10000m1015hPa95%
30-Jun-2024 00:00Light Rain12°C11 mph, NW100%7017m1014hPa97%
30-Jun-2024 03:00Light Rain12°C13 mph, W100%6796m1012hPa96%
30-Jun-2024 06:00Light Rain11°C9 mph, W97%10000m1012hPa94%
30-Jun-2024 09:00Light Rain9°C7 mph, W90%10000m1014hPa96%
30-Jun-2024 12:00Light Rain8°C7 mph, W94%8767m1015hPa96%
30-Jun-2024 15:00Light Rain7°C9 mph, W99%10000m1015hPa92%
30-Jun-2024 18:00Broken Clouds2°C4 mph, W51%10000m1017hPa95%
30-Jun-2024 21:00Overcast Clouds5°C9 mph, W100%10000m1017hPa83%